sensor_id;sensor_type;location;lat;lon;timestamp;temperature;humidity
52295;DHT22;38243;53.212;6.574;2023-11-21T00:00:16;17.10;99.90
52295;DHT22;38243;53.212;6.574;2023-11-21T00:02:43;17.10;99.90
52295;DHT22;38243;53.212;6.574;2023-11-21T00:05:10;17.10;99.90
52295;DHT22;38243;53.212;6.574;2023-11-21T00:07:36;17.10;99.90
52295;DHT22;38243;53.212;6.574;2023-11-21T00:10:03;17.10;99.90
52295;DHT22;38243;53.212;6.574;2023-11-21T00:12:34;17.10;99.90
52295;DHT22;38243;53.212;6.574;2023-11-21T00:15:00;17.10;99.90
52295;DHT22;38243;53.212;6.574;2023-11-21T00:17:25;17.10;99.90
52295;DHT22;38243;53.212;6.574;2023-11-21T00:19:51;17.10;99.90
52295;DHT22;38243;53.212;6.574;2023-11-21T00:22:18;17.10;99.90
52295;DHT22;38243;53.212;6.574;2023-11-21T00:24:43;17.10;99.90
52295;DHT22;38243;53.212;6.574;2023-11-21T00:27:09;17.10;99.90
52295;DHT22;38243;53.212;6.574;2023-11-21T00:29:35;17.10;99.90
52295;DHT22;38243;53.212;6.574;2023-11-21T00:32:01;17.10;99.90
52295;DHT22;38243;53.212;6.574;2023-11-21T00:34:27;17.10;99.90
52295;DHT22;38243;53.212;6.574;2023-11-21T00:36:53;17.00;99.90
52295;DHT22;38243;53.212;6.574;2023-11-21T00:39:18;17.00;99.90
52295;DHT22;38243;53.212;6.574;2023-11-21T00:41:44;17.00;99.90
52295;DHT22;38243;53.212;6.574;2023-11-21T00:44:11;17.00;99.90
52295;DHT22;38243;53.212;6.574;2023-11-21T00:46:36;17.00;99.90
52295;DHT22;38243;53.212;6.574;2023-11-21T00:49:02;17.00;99.90
52295;DHT22;38243;53.212;6.574;2023-11-21T00:51:30;17.10;99.90
52295;DHT22;38243;53.212;6.574;2023-11-21T00:53:55;17.00;99.90
52295;DHT22;38243;53.212;6.574;2023-11-21T00:56:21;17.00;99.90
52295;DHT22;38243;53.212;6.574;2023-11-21T00:58:47;17.00;99.90
52295;DHT22;38243;53.212;6.574;2023-11-21T01:01:16;17.00;99.90
52295;DHT22;38243;53.212;6.574;2023-11-21T01:03:42;17.00;99.90
52295;DHT22;38243;53.212;6.574;2023-11-21T01:06:08;17.00;99.90
52295;DHT22;38243;53.212;6.574;2023-11-21T01:08:34;17.00;99.90
52295;DHT22;38243;53.212;6.574;2023-11-21T01:11:01;17.00;99.90
52295;DHT22;38243;53.212;6.574;2023-11-21T01:13:27;17.10;99.90
52295;DHT22;38243;53.212;6.574;2023-11-21T01:15:54;17.00;99.90
52295;DHT22;38243;53.212;6.574;2023-11-21T01:18:19;17.20;99.90
52295;DHT22;38243;53.212;6.574;2023-11-21T01:20:45;17.00;99.90
52295;DHT22;38243;53.212;6.574;2023-11-21T01:23:13;17.00;99.90
52295;DHT22;38243;53.212;6.574;2023-11-21T01:25:39;17.00;99.90
52295;DHT22;38243;53.212;6.574;2023-11-21T01:28:04;17.00;99.90
52295;DHT22;38243;53.212;6.574;2023-11-21T01:30:30;17.00;99.90
52295;DHT22;38243;53.212;6.574;2023-11-21T01:32:58;17.00;99.90
52295;DHT22;38243;53.212;6.574;2023-11-21T01:35:24;17.00;99.90
52295;DHT22;38243;53.212;6.574;2023-11-21T01:37:50;17.00;99.90
52295;DHT22;38243;53.212;6.574;2023-11-21T01:40:16;17.00;99.90
52295;DHT22;38243;53.212;6.574;2023-11-21T01:42:42;17.00;99.90
52295;DHT22;38243;53.212;6.574;2023-11-21T01:45:10;17.00;99.90
52295;DHT22;38243;53.212;6.574;2023-11-21T01:47:38;17.00;99.90
52295;DHT22;38243;53.212;6.574;2023-11-21T01:50:04;17.00;99.90
52295;DHT22;38243;53.212;6.574;2023-11-21T01:52:31;17.00;99.90
52295;DHT22;38243;53.212;6.574;2023-11-21T01:54:59;17.00;99.90
52295;DHT22;38243;53.212;6.574;2023-11-21T01:57:25;17.00;99.90
52295;DHT22;38243;53.212;6.574;2023-11-21T01:59:54;17.00;99.90
52295;DHT22;38243;53.212;6.574;2023-11-21T02:02:20;17.00;99.90
52295;DHT22;38243;53.212;6.574;2023-11-21T02:04:45;17.00;99.90
52295;DHT22;38243;53.212;6.574;2023-11-21T02:07:11;17.00;99.90
52295;DHT22;38243;53.212;6.574;2023-11-21T02:09:37;17.00;99.90
52295;DHT22;38243;53.212;6.574;2023-11-21T02:12:08;17.00;99.90
52295;DHT22;38243;53.212;6.574;2023-11-21T02:14:36;17.00;99.90
52295;DHT22;38243;53.212;6.574;2023-11-21T02:17:02;17.00;99.90
52295;DHT22;38243;53.212;6.574;2023-11-21T02:19:29;17.00;99.90
52295;DHT22;38243;53.212;6.574;2023-11-21T02:21:59;17.00;99.90
52295;DHT22;38243;53.212;6.574;2023-11-21T02:24:28;17.00;99.90
52295;DHT22;38243;53.212;6.574;2023-11-21T02:26:54;17.00;99.90
52295;DHT22;38243;53.212;6.574;2023-11-21T02:29:21;17.00;99.90
52295;DHT22;38243;53.212;6.574;2023-11-21T02:31:54;17.00;99.90
52295;DHT22;38243;53.212;6.574;2023-11-21T02:34:21;17.00;99.90
52295;DHT22;38243;53.212;6.574;2023-11-21T02:36:47;17.00;99.90
52295;DHT22;38243;53.212;6.574;2023-11-21T02:39:19;17.00;99.90
52295;DHT22;38243;53.212;6.574;2023-11-21T02:41:48;17.00;99.90
52295;DHT22;38243;53.212;6.574;2023-11-21T02:44:13;17.00;99.90
52295;DHT22;38243;53.212;6.574;2023-11-21T02:46:39;17.00;99.90
52295;DHT22;38243;53.212;6.574;2023-11-21T02:49:06;17.00;99.90
52295;DHT22;38243;53.212;6.574;2023-11-21T02:51:32;17.00;99.90
52295;DHT22;38243;53.212;6.574;2023-11-21T02:53:58;17.00;99.90
52295;DHT22;38243;53.212;6.574;2023-11-21T02:56:26;17.00;99.90
52295;DHT22;38243;53.212;6.574;2023-11-21T02:58:52;17.00;99.90
52295;DHT22;38243;53.212;6.574;2023-11-21T03:01:18;17.00;99.90
52295;DHT22;38243;53.212;6.574;2023-11-21T03:03:44;17.00;99.90
52295;DHT22;38243;53.212;6.574;2023-11-21T03:06:09;17.00;99.90
52295;DHT22;38243;53.212;6.574;2023-11-21T03:08:35;17.00;99.90
52295;DHT22;38243;53.212;6.574;2023-11-21T03:11:01;17.00;99.90
52295;DHT22;38243;53.212;6.574;2023-11-21T03:13:30;17.00;99.90
52295;DHT22;38243;53.212;6.574;2023-11-21T03:15:55;17.00;99.90
52295;DHT22;38243;53.212;6.574;2023-11-21T03:18:21;17.00;99.90
52295;DHT22;38243;53.212;6.574;2023-11-21T03:20:54;17.00;99.90
52295;DHT22;38243;53.212;6.574;2023-11-21T03:23:20;17.00;99.90
52295;DHT22;38243;53.212;6.574;2023-11-21T03:25:46;17.00;99.90
52295;DHT22;38243;53.212;6.574;2023-11-21T03:28:11;17.00;99.90
52295;DHT22;38243;53.212;6.574;2023-11-21T03:30:37;17.00;99.90
52295;DHT22;38243;53.212;6.574;2023-11-21T03:33:03;17.00;99.90
52295;DHT22;38243;53.212;6.574;2023-11-21T03:35:28;17.00;99.90
52295;DHT22;38243;53.212;6.574;2023-11-21T03:37:54;17.00;99.90
52295;DHT22;38243;53.212;6.574;2023-11-21T03:40:20;17.00;99.90
52295;DHT22;38243;53.212;6.574;2023-11-21T03:42:49;17.00;99.90
52295;DHT22;38243;53.212;6.574;2023-11-21T03:45:14;17.00;99.90
52295;DHT22;38243;53.212;6.574;2023-11-21T03:47:41;17.00;99.90
52295;DHT22;38243;53.212;6.574;2023-11-21T03:50:07;17.00;99.90
52295;DHT22;38243;53.212;6.574;2023-11-21T03:52:35;17.00;99.90
52295;DHT22;38243;53.212;6.574;2023-11-21T03:55:01;17.00;99.90
52295;DHT22;38243;53.212;6.574;2023-11-21T03:57:27;17.00;99.90
52295;DHT22;38243;53.212;6.574;2023-11-21T03:59:53;17.00;99.90
52295;DHT22;38243;53.212;6.574;2023-11-21T04:02:19;17.00;99.90
52295;DHT22;38243;53.212;6.574;2023-11-21T04:04:45;17.00;99.90
52295;DHT22;38243;53.212;6.574;2023-11-21T04:07:11;17.00;99.90
52295;DHT22;38243;53.212;6.574;2023-11-21T04:09:39;16.80;99.90
52295;DHT22;38243;53.212;6.574;2023-11-21T04:12:05;17.00;99.90
52295;DHT22;38243;53.212;6.574;2023-11-21T04:14:31;17.00;99.90
52295;DHT22;38243;53.212;6.574;2023-11-21T04:16:57;17.00;99.90
52295;DHT22;38243;53.212;6.574;2023-11-21T04:19:23;17.00;99.90
52295;DHT22;38243;53.212;6.574;2023-11-21T04:21:49;17.00;99.90
52295;DHT22;38243;53.212;6.574;2023-11-21T04:24:14;17.00;99.90
52295;DHT22;38243;53.212;6.574;2023-11-21T04:26:40;17.00;99.90
52295;DHT22;38243;53.212;6.574;2023-11-21T04:29:06;17.00;99.90
52295;DHT22;38243;53.212;6.574;2023-11-21T04:31:31;17.00;99.90
52295;DHT22;38243;53.212;6.574;2023-11-21T04:33:57;17.00;99.90
52295;DHT22;38243;53.212;6.574;2023-11-21T04:36:23;17.00;99.90
52295;DHT22;38243;53.212;6.574;2023-11-21T04:38:49;17.00;99.90
52295;DHT22;38243;53.212;6.574;2023-11-21T04:41:14;17.00;99.90
52295;DHT22;38243;53.212;6.574;2023-11-21T04:43:40;17.00;99.90
52295;DHT22;38243;53.212;6.574;2023-11-21T04:46:08;17.00;99.90
52295;DHT22;38243;53.212;6.574;2023-11-21T04:48:34;17.00;99.90
52295;DHT22;38243;53.212;6.574;2023-11-21T04:50:59;17.00;99.90
52295;DHT22;38243;53.212;6.574;2023-11-21T04:53:25;17.00;99.90
52295;DHT22;38243;53.212;6.574;2023-11-21T04:55:51;17.00;99.90
52295;DHT22;38243;53.212;6.574;2023-11-21T04:58:17;17.00;99.90
52295;DHT22;38243;53.212;6.574;2023-11-21T05:00:42;15.00;99.90
52295;DHT22;38243;53.212;6.574;2023-11-21T05:03:09;17.00;99.90
52295;DHT22;38243;53.212;6.574;2023-11-21T05:05:35;17.00;99.90
52295;DHT22;38243;53.212;6.574;2023-11-21T05:08:02;17.00;99.90
52295;DHT22;38243;53.212;6.574;2023-11-21T05:10:28;17.00;99.90
52295;DHT22;38243;53.212;6.574;2023-11-21T05:12:55;17.00;99.90
52295;DHT22;38243;53.212;6.574;2023-11-21T05:15:21;16.90;99.90
52295;DHT22;38243;53.212;6.574;2023-11-21T05:17:46;17.00;99.90
52295;DHT22;38243;53.212;6.574;2023-11-21T05:20:15;17.00;99.90
52295;DHT22;38243;53.212;6.574;2023-11-21T05:22:47;17.00;99.90
52295;DHT22;38243;53.212;6.574;2023-11-21T05:25:14;17.00;99.90
52295;DHT22;38243;53.212;6.574;2023-11-21T05:27:39;17.00;99.90
52295;DHT22;38243;53.212;6.574;2023-11-21T05:30:06;17.00;99.90
52295;DHT22;38243;53.212;6.574;2023-11-21T05:32:33;16.90;99.90
52295;DHT22;38243;53.212;6.574;2023-11-21T05:34:59;16.90;99.90
52295;DHT22;38243;53.212;6.574;2023-11-21T05:37:25;17.00;99.90
52295;DHT22;38243;53.212;6.574;2023-11-21T05:39:53;17.00;99.90
52295;DHT22;38243;53.212;6.574;2023-11-21T05:42:22;16.90;99.90
52295;DHT22;38243;53.212;6.574;2023-11-21T05:44:48;17.00;99.90
52295;DHT22;38243;53.212;6.574;2023-11-21T05:47:14;17.00;99.90
52295;DHT22;38243;53.212;6.574;2023-11-21T05:49:40;16.90;99.90
52295;DHT22;38243;53.212;6.574;2023-11-21T05:52:06;16.90;99.90
52295;DHT22;38243;53.212;6.574;2023-11-21T05:54:32;16.90;99.90
52295;DHT22;38243;53.212;6.574;2023-11-21T05:56:58;16.90;99.90
52295;DHT22;38243;53.212;6.574;2023-11-21T05:59:24;16.90;99.90
52295;DHT22;38243;53.212;6.574;2023-11-21T06:01:50;17.00;99.90
52295;DHT22;38243;53.212;6.574;2023-11-21T06:04:16;16.90;99.90
52295;DHT22;38243;53.212;6.574;2023-11-21T06:06:41;16.90;99.90
52295;DHT22;38243;53.212;6.574;2023-11-21T06:09:07;16.90;99.90
52295;DHT22;38243;53.212;6.574;2023-11-21T06:11:35;16.90;99.90
52295;DHT22;38243;53.212;6.574;2023-11-21T06:14:01;16.90;99.90
52295;DHT22;38243;53.212;6.574;2023-11-21T06:16:27;16.90;99.90
52295;DHT22;38243;53.212;6.574;2023-11-21T06:18:53;16.90;99.90
52295;DHT22;38243;53.212;6.574;2023-11-21T06:21:19;16.90;99.90
52295;DHT22;38243;53.212;6.574;2023-11-21T06:23:45;16.90;99.90
52295;DHT22;38243;53.212;6.574;2023-11-21T06:26:10;17.00;99.90
52295;DHT22;38243;53.212;6.574;2023-11-21T06:28:37;16.90;99.90
52295;DHT22;38243;53.212;6.574;2023-11-21T06:31:03;16.90;99.90
52295;DHT22;38243;53.212;6.574;2023-11-21T06:33:34;16.90;99.90
52295;DHT22;38243;53.212;6.574;2023-11-21T06:36:00;16.90;99.90
52295;DHT22;38243;53.212;6.574;2023-11-21T06:38:28;16.90;99.90
52295;DHT22;38243;53.212;6.574;2023-11-21T06:40:58;16.90;99.90
52295;DHT22;38243;53.212;6.574;2023-11-21T06:43:27;16.90;99.90
52295;DHT22;38243;53.212;6.574;2023-11-21T06:45:52;16.90;99.90
52295;DHT22;38243;53.212;6.574;2023-11-21T06:48:18;16.90;99.90
52295;DHT22;38243;53.212;6.574;2023-11-21T06:50:44;16.90;99.90
52295;DHT22;38243;53.212;6.574;2023-11-21T06:53:09;16.90;99.90
52295;DHT22;38243;53.212;6.574;2023-11-21T06:55:35;16.00;99.90
52295;DHT22;38243;53.212;6.574;2023-11-21T06:58:01;16.90;99.90
52295;DHT22;38243;53.212;6.574;2023-11-21T07:00:27;16.90;99.90
52295;DHT22;38243;53.212;6.574;2023-11-21T07:02:55;16.90;99.90
52295;DHT22;38243;53.212;6.574;2023-11-21T07:05:22;16.90;99.90
52295;DHT22;38243;53.212;6.574;2023-11-21T07:07:48;16.90;99.90
52295;DHT22;38243;53.212;6.574;2023-11-21T07:10:15;16.90;99.90
52295;DHT22;38243;53.212;6.574;2023-11-21T07:12:40;16.90;99.90
52295;DHT22;38243;53.212;6.574;2023-11-21T07:15:07;16.90;99.90
52295;DHT22;38243;53.212;6.574;2023-11-21T07:17:35;16.90;99.90
52295;DHT22;38243;53.212;6.574;2023-11-21T07:20:01;16.90;99.90
52295;DHT22;38243;53.212;6.574;2023-11-21T07:22:27;16.40;99.90
52295;DHT22;38243;53.212;6.574;2023-11-21T07:24:53;16.90;99.90
52295;DHT22;38243;53.212;6.574;2023-11-21T07:27:19;16.90;99.90
52295;DHT22;38243;53.212;6.574;2023-11-21T07:29:45;16.90;99.90
52295;DHT22;38243;53.212;6.574;2023-11-21T07:32:11;16.90;99.90
52295;DHT22;38243;53.212;6.574;2023-11-21T07:34:38;16.90;99.90
52295;DHT22;38243;53.212;6.574;2023-11-21T07:37:04;16.90;99.90
52295;DHT22;38243;53.212;6.574;2023-11-21T07:39:30;16.90;99.90
52295;DHT22;38243;53.212;6.574;2023-11-21T07:41:56;16.90;99.90
52295;DHT22;38243;53.212;6.574;2023-11-21T07:44:23;16.90;99.90
52295;DHT22;38243;53.212;6.574;2023-11-21T07:46:49;16.90;99.90
52295;DHT22;38243;53.212;6.574;2023-11-21T07:49:17;16.90;99.90
52295;DHT22;38243;53.212;6.574;2023-11-21T07:51:45;16.90;99.90
52295;DHT22;38243;53.212;6.574;2023-11-21T07:54:11;16.90;99.90
52295;DHT22;38243;53.212;6.574;2023-11-21T07:56:37;16.90;99.90
52295;DHT22;38243;53.212;6.574;2023-11-21T07:59:03;16.90;99.90
52295;DHT22;38243;53.212;6.574;2023-11-21T08:01:29;16.90;99.90
52295;DHT22;38243;53.212;6.574;2023-11-21T08:03:55;16.90;99.90
52295;DHT22;38243;53.212;6.574;2023-11-21T08:06:24;16.90;99.90
52295;DHT22;38243;53.212;6.574;2023-11-21T08:08:51;16.90;99.90
52295;DHT22;38243;53.212;6.574;2023-11-21T08:11:17;16.90;99.90
52295;DHT22;38243;53.212;6.574;2023-11-21T08:13:43;16.90;99.90
52295;DHT22;38243;53.212;6.574;2023-11-21T08:16:09;16.90;99.90
52295;DHT22;38243;53.212;6.574;2023-11-21T08:18:35;16.90;99.90
52295;DHT22;38243;53.212;6.574;2023-11-21T08:21:01;16.90;99.90
52295;DHT22;38243;53.212;6.574;2023-11-21T08:23:26;16.90;99.90
52295;DHT22;38243;53.212;6.574;2023-11-21T08:25:53;16.90;99.90
52295;DHT22;38243;53.212;6.574;2023-11-21T08:28:19;16.90;99.90
52295;DHT22;38243;53.212;6.574;2023-11-21T08:30:47;16.90;99.90
52295;DHT22;38243;53.212;6.574;2023-11-21T08:34:04;16.90;99.90
52295;DHT22;38243;53.212;6.574;2023-11-21T08:36:30;16.80;99.90
52295;DHT22;38243;53.212;6.574;2023-11-21T08:38:57;17.10;99.90
52295;DHT22;38243;53.212;6.574;2023-11-21T08:41:23;16.80;99.90
52295;DHT22;38243;53.212;6.574;2023-11-21T08:43:52;16.90;99.90
52295;DHT22;38243;53.212;6.574;2023-11-21T08:46:19;16.90;99.90
52295;DHT22;38243;53.212;6.574;2023-11-21T08:48:45;16.90;99.90
52295;DHT22;38243;53.212;6.574;2023-11-21T08:51:11;16.90;99.90
52295;DHT22;38243;53.212;6.574;2023-11-21T08:53:38;16.90;99.90
52295;DHT22;38243;53.212;6.574;2023-11-21T08:56:04;16.90;99.90
52295;DHT22;38243;53.212;6.574;2023-11-21T08:58:31;16.90;99.90
52295;DHT22;38243;53.212;6.574;2023-11-21T09:00:57;16.90;99.90
52295;DHT22;38243;53.212;6.574;2023-11-21T09:03:23;16.90;99.90
52295;DHT22;38243;53.212;6.574;2023-11-21T09:05:49;16.90;99.90
52295;DHT22;38243;53.212;6.574;2023-11-21T09:08:18;16.90;99.90
52295;DHT22;38243;53.212;6.574;2023-11-21T09:10:44;17.00;99.90
52295;DHT22;38243;53.212;6.574;2023-11-21T09:13:13;16.90;99.90
52295;DHT22;38243;53.212;6.574;2023-11-21T09:15:38;16.90;99.90
52295;DHT22;38243;53.212;6.574;2023-11-21T09:18:05;16.90;99.90
52295;DHT22;38243;53.212;6.574;2023-11-21T09:20:30;16.90;99.90
52295;DHT22;38243;53.212;6.574;2023-11-21T09:22:56;16.90;99.90
52295;DHT22;38243;53.212;6.574;2023-11-21T09:25:22;16.90;99.90
52295;DHT22;38243;53.212;6.574;2023-11-21T09:27:48;16.90;99.90
52295;DHT22;38243;53.212;6.574;2023-11-21T09:30:13;16.90;99.90
52295;DHT22;38243;53.212;6.574;2023-11-21T09:32:42;16.90;99.90
52295;DHT22;38243;53.212;6.574;2023-11-21T09:35:11;16.90;99.90
52295;DHT22;38243;53.212;6.574;2023-11-21T09:37:37;16.90;99.90
52295;DHT22;38243;53.212;6.574;2023-11-21T09:40:05;16.90;99.90
52295;DHT22;38243;53.212;6.574;2023-11-21T09:42:46;17.00;99.90
52295;DHT22;38243;53.212;6.574;2023-11-21T09:45:27;17.00;99.90
52295;DHT22;38243;53.212;6.574;2023-11-21T09:47:57;16.90;99.90
52295;DHT22;38243;53.212;6.574;2023-11-21T09:50:23;16.90;99.90
52295;DHT22;38243;53.212;6.574;2023-11-21T09:55:32;17.00;99.90
52295;DHT22;38243;53.212;6.574;2023-11-21T09:58:05;17.00;99.90
52295;DHT22;38243;53.212;6.574;2023-11-21T10:00:33;17.00;99.90
52295;DHT22;38243;53.212;6.574;2023-11-21T10:02:59;17.00;99.90
52295;DHT22;38243;53.212;6.574;2023-11-21T10:05:25;17.00;99.90
52295;DHT22;38243;53.212;6.574;2023-11-21T10:07:52;18.80;99.90
52295;DHT22;38243;53.212;6.574;2023-11-21T10:10:19;17.00;99.90
52295;DHT22;38243;53.212;6.574;2023-11-21T10:12:50;17.00;99.90
52295;DHT22;38243;53.212;6.574;2023-11-21T10:15:21;17.00;99.90
52295;DHT22;38243;53.212;6.574;2023-11-21T10:17:49;17.00;99.90
52295;DHT22;38243;53.212;6.574;2023-11-21T10:20:16;17.00;99.90
52295;DHT22;38243;53.212;6.574;2023-11-21T10:22:43;17.00;99.90
52295;DHT22;38243;53.212;6.574;2023-11-21T10:25:12;17.00;99.90
52295;DHT22;38243;53.212;6.574;2023-11-21T10:27:42;17.00;99.90
52295;DHT22;38243;53.212;6.574;2023-11-21T10:30:10;17.00;99.90
52295;DHT22;38243;53.212;6.574;2023-11-21T10:32:39;17.00;99.90
52295;DHT22;38243;53.212;6.574;2023-11-21T10:35:07;17.00;99.90
52295;DHT22;38243;53.212;6.574;2023-11-21T10:37:39;17.00;99.90
52295;DHT22;38243;53.212;6.574;2023-11-21T10:40:07;18.00;99.90
52295;DHT22;38243;53.212;6.574;2023-11-21T10:42:33;17.00;99.90
52295;DHT22;38243;53.212;6.574;2023-11-21T10:44:59;17.00;99.90
52295;DHT22;38243;53.212;6.574;2023-11-21T10:47:26;17.00;99.90
52295;DHT22;38243;53.212;6.574;2023-11-21T10:49:52;17.00;99.90
52295;DHT22;38243;53.212;6.574;2023-11-21T10:52:20;17.00;99.90
52295;DHT22;38243;53.212;6.574;2023-11-21T10:54:47;17.00;99.90
52295;DHT22;38243;53.212;6.574;2023-11-21T10:57:17;17.00;99.90
52295;DHT22;38243;53.212;6.574;2023-11-21T10:59:46;17.00;99.90
52295;DHT22;38243;53.212;6.574;2023-11-21T11:02:25;17.00;99.90
52295;DHT22;38243;53.212;6.574;2023-11-21T11:04:54;17.00;99.90
52295;DHT22;38243;53.212;6.574;2023-11-21T11:07:26;17.00;99.90
52295;DHT22;38243;53.212;6.574;2023-11-21T11:09:56;17.00;99.90
52295;DHT22;38243;53.212;6.574;2023-11-21T11:12:24;17.00;99.90
52295;DHT22;38243;53.212;6.574;2023-11-21T11:14:51;17.00;99.90
52295;DHT22;38243;53.212;6.574;2023-11-21T11:17:18;17.00;99.90
52295;DHT22;38243;53.212;6.574;2023-11-21T11:19:46;17.00;99.90
52295;DHT22;38243;53.212;6.574;2023-11-21T11:27:44;17.00;99.90
52295;DHT22;38243;53.212;6.574;2023-11-21T11:33:34;17.00;99.90
52295;DHT22;38243;53.212;6.574;2023-11-21T11:38:58;17.10;99.90
52295;DHT22;38243;53.212;6.574;2023-11-21T11:41:31;17.10;99.90
52295;DHT22;38243;53.212;6.574;2023-11-21T11:44:02;17.10;99.90
52295;DHT22;38243;53.212;6.574;2023-11-21T11:46:43;17.10;99.90
52295;DHT22;38243;53.212;6.574;2023-11-21T11:49:32;17.10;99.90
52295;DHT22;38243;53.212;6.574;2023-11-21T11:52:31;17.10;99.90
52295;DHT22;38243;53.212;6.574;2023-11-21T11:54:58;17.10;99.90
52295;DHT22;38243;53.212;6.574;2023-11-21T11:57:30;17.10;99.90
52295;DHT22;38243;53.212;6.574;2023-11-21T12:00:33;17.20;99.90
52295;DHT22;38243;53.212;6.574;2023-11-21T12:03:03;17.20;99.90
52295;DHT22;38243;53.212;6.574;2023-11-21T12:05:31;17.20;99.90
52295;DHT22;38243;53.212;6.574;2023-11-21T12:08:11;17.30;99.40
52295;DHT22;38243;53.212;6.574;2023-11-21T12:10:39;17.30;98.90
52295;DHT22;38243;53.212;6.574;2023-11-21T12:13:10;17.30;98.50
52295;DHT22;38243;53.212;6.574;2023-11-21T12:15:37;17.30;98.40
52295;DHT22;38243;53.212;6.574;2023-11-21T12:18:04;17.30;98.00
52295;DHT22;38243;53.212;6.574;2023-11-21T12:20:31;17.30;97.80
52295;DHT22;38243;53.212;6.574;2023-11-21T12:22:58;17.30;98.00
52295;DHT22;38243;53.212;6.574;2023-11-21T12:25:29;17.30;97.90
52295;DHT22;38243;53.212;6.574;2023-11-21T12:27:58;17.30;97.70
52295;DHT22;38243;53.212;6.574;2023-11-21T12:30:28;17.30;97.40
52295;DHT22;38243;53.212;6.574;2023-11-21T12:32:57;17.30;97.30
52295;DHT22;38243;53.212;6.574;2023-11-21T12:35:33;17.30;97.10
52295;DHT22;38243;53.212;6.574;2023-11-21T12:38:00;17.30;96.90
52295;DHT22;38243;53.212;6.574;2023-11-21T12:40:28;17.30;96.80
52295;DHT22;38243;53.212;6.574;2023-11-21T12:42:58;17.30;96.60
52295;DHT22;38243;53.212;6.574;2023-11-21T12:45:26;17.30;96.40
52295;DHT22;38243;53.212;6.574;2023-11-21T12:47:56;17.30;96.20
52295;DHT22;38243;53.212;6.574;2023-11-21T12:50:26;17.30;96.20
52295;DHT22;38243;53.212;6.574;2023-11-21T12:53:00;17.30;96.00
52295;DHT22;38243;53.212;6.574;2023-11-21T12:55:32;17.30;95.80
52295;DHT22;38243;53.212;6.574;2023-11-21T12:58:01;17.30;95.60
52295;DHT22;38243;53.212;6.574;2023-11-21T13:00:37;17.30;95.20
52295;DHT22;38243;53.212;6.574;2023-11-21T13:03:07;17.30;95.00
52295;DHT22;38243;53.212;6.574;2023-11-21T13:05:37;17.30;95.00
52295;DHT22;38243;53.212;6.574;2023-11-21T13:08:14;17.30;94.90
52295;DHT22;38243;53.212;6.574;2023-11-21T13:10:45;17.20;94.70
52295;DHT22;38243;53.212;6.574;2023-11-21T13:13:14;17.30;94.80
52295;DHT22;38243;53.212;6.574;2023-11-21T13:15:56;17.20;95.00
52295;DHT22;38243;53.212;6.574;2023-11-21T13:18:25;17.20;95.20
52295;DHT22;38243;53.212;6.574;2023-11-21T13:21:02;17.30;95.30
52295;DHT22;38243;53.212;6.574;2023-11-21T13:23:36;17.20;95.30
52295;DHT22;38243;53.212;6.574;2023-11-21T13:26:03;17.30;95.50
52295;DHT22;38243;53.212;6.574;2023-11-21T13:28:32;17.30;95.70
52295;DHT22;38243;53.212;6.574;2023-11-21T13:31:03;17.30;95.70
52295;DHT22;38243;53.212;6.574;2023-11-21T13:33:38;17.30;95.70
52295;DHT22;38243;53.212;6.574;2023-11-21T13:36:06;17.30;95.70
52295;DHT22;38243;53.212;6.574;2023-11-21T13:38:35;17.30;95.70
52295;DHT22;38243;53.212;6.574;2023-11-21T13:41:01;17.30;95.70
52295;DHT22;38243;53.212;6.574;2023-11-21T13:43:28;17.30;95.70
52295;DHT22;38243;53.212;6.574;2023-11-21T13:45:56;17.30;95.70
52295;DHT22;38243;53.212;6.574;2023-11-21T13:48:29;17.30;95.80
52295;DHT22;38243;53.212;6.574;2023-11-21T13:51:08;17.20;95.70
52295;DHT22;38243;53.212;6.574;2023-11-21T13:53:38;17.20;95.80
52295;DHT22;38243;53.212;6.574;2023-11-21T13:56:07;17.20;95.70
52295;DHT22;38243;53.212;6.574;2023-11-21T13:58:33;17.20;95.80
52295;DHT22;38243;53.212;6.574;2023-11-21T14:01:13;17.30;95.80
52295;DHT22;38243;53.212;6.574;2023-11-21T14:04:03;17.20;95.80
52295;DHT22;38243;53.212;6.574;2023-11-21T14:06:40;17.20;95.90
52295;DHT22;38243;53.212;6.574;2023-11-21T14:09:18;17.20;95.90
52295;DHT22;38243;53.212;6.574;2023-11-21T14:11:56;17.20;96.00
52295;DHT22;38243;53.212;6.574;2023-11-21T14:14:24;17.20;96.00
52295;DHT22;38243;53.212;6.574;2023-11-21T14:16:56;17.20;96.00
52295;DHT22;38243;53.212;6.574;2023-11-21T14:19:22;17.20;96.00
52295;DHT22;38243;53.212;6.574;2023-11-21T14:21:52;17.20;96.10
52295;DHT22;38243;53.212;6.574;2023-11-21T14:24:18;17.20;96.10
52295;DHT22;38243;53.212;6.574;2023-11-21T14:26:46;17.20;96.10
52295;DHT22;38243;53.212;6.574;2023-11-21T14:29:12;17.20;96.10
52295;DHT22;38243;53.212;6.574;2023-11-21T14:31:40;17.20;96.10
52295;DHT22;38243;53.212;6.574;2023-11-21T14:34:07;17.20;96.10
52295;DHT22;38243;53.212;6.574;2023-11-21T14:36:33;17.20;96.10
52295;DHT22;38243;53.212;6.574;2023-11-21T14:38:59;17.20;96.10
52295;DHT22;38243;53.212;6.574;2023-11-21T14:41:25;17.20;96.20
52295;DHT22;38243;53.212;6.574;2023-11-21T14:43:53;17.20;96.20
52295;DHT22;38243;53.212;6.574;2023-11-21T14:46:19;17.20;96.20
52295;DHT22;38243;53.212;6.574;2023-11-21T14:48:45;17.20;96.20
52295;DHT22;38243;53.212;6.574;2023-11-21T14:51:28;17.10;96.20
52295;DHT22;38243;53.212;6.574;2023-11-21T14:54:01;17.10;96.20
52295;DHT22;38243;53.212;6.574;2023-11-21T14:56:37;17.10;96.20
52295;DHT22;38243;53.212;6.574;2023-11-21T14:59:04;17.10;96.10
52295;DHT22;38243;53.212;6.574;2023-11-21T15:01:41;17.10;96.20
52295;DHT22;38243;53.212;6.574;2023-11-21T15:04:20;17.10;96.20
52295;DHT22;38243;53.212;6.574;2023-11-21T15:07:04;17.10;96.20
52295;DHT22;38243;53.212;6.574;2023-11-21T15:09:32;17.10;96.20
52295;DHT22;38243;53.212;6.574;2023-11-21T15:11:59;17.10;96.30
52295;DHT22;38243;53.212;6.574;2023-11-21T15:14:51;17.10;96.20
52295;DHT22;38243;53.212;6.574;2023-11-21T15:17:23;17.10;96.30
52295;DHT22;38243;53.212;6.574;2023-11-21T15:19:52;17.10;96.20
52295;DHT22;38243;53.212;6.574;2023-11-21T15:22:19;17.10;96.20
52295;DHT22;38243;53.212;6.574;2023-11-21T15:24:45;17.10;96.20
52295;DHT22;38243;53.212;6.574;2023-11-21T15:27:13;17.10;96.20
52295;DHT22;38243;53.212;6.574;2023-11-21T15:29:39;17.10;96.20
52295;DHT22;38243;53.212;6.574;2023-11-21T15:32:06;17.10;96.20
52295;DHT22;38243;53.212;6.574;2023-11-21T15:34:33;17.10;96.20
52295;DHT22;38243;53.212;6.574;2023-11-21T15:36:58;17.10;96.20
52295;DHT22;38243;53.212;6.574;2023-11-21T15:39:24;17.10;96.20
52295;DHT22;38243;53.212;6.574;2023-11-21T15:41:57;17.10;96.20
52295;DHT22;38243;53.212;6.574;2023-11-21T15:44:24;17.10;96.20
52295;DHT22;38243;53.212;6.574;2023-11-21T15:46:52;17.10;96.20
52295;DHT22;38243;53.212;6.574;2023-11-21T15:49:18;17.10;96.20